createdAt,value
2018-02-27T00:00:01.272Z,4.80
2018-02-27T00:01:01.248Z,5.30
2018-02-27T00:02:01.218Z,5.00
2018-02-27T00:03:01.189Z,5.00
2018-02-27T00:04:01.146Z,5.10
2018-02-27T00:05:01.117Z,5.00
2018-02-27T00:06:01.095Z,5.50
2018-02-27T00:07:01.053Z,5.50
2018-02-27T00:08:01.023Z,5.40
2018-02-27T00:09:00.993Z,5.30
2018-02-27T00:10:00.957Z,5.70
2018-02-27T00:11:00.939Z,5.20
2018-02-27T00:12:00.894Z,5.60
2018-02-27T00:13:00.865Z,5.40
2018-02-27T00:14:00.839Z,5.20
2018-02-27T00:15:00.803Z,5.30
2018-02-27T00:16:00.775Z,5.40
2018-02-27T00:17:00.739Z,5.60
2018-02-27T00:18:00.721Z,5.70
2018-02-27T00:19:00.676Z,5.70
2018-02-27T00:20:00.652Z,5.60
2018-02-27T00:21:00.614Z,5.40
2018-02-27T00:22:00.588Z,5.60
2018-02-27T00:23:00.557Z,5.60
2018-02-27T00:24:00.525Z,6.00
2018-02-27T00:25:00.490Z,5.50
2018-02-27T00:26:00.461Z,5.80
2018-02-27T00:27:00.429Z,5.60
2018-02-27T00:28:00.406Z,5.50
2018-02-27T00:29:00.362Z,5.90
2018-02-27T00:30:00.336Z,5.80
2018-02-27T00:31:00.306Z,6.10
2018-02-27T00:32:00.273Z,6.70
2018-02-27T00:33:00.245Z,6.40
2018-02-27T00:34:00.205Z,6.60
2018-02-27T00:35:00.179Z,6.40
2018-02-27T00:36:00.145Z,6.30
2018-02-27T00:37:00.124Z,6.50
2018-02-27T00:38:00.089Z,5.80
2018-02-27T00:39:00.049Z,6.20
2018-02-27T00:40:00.018Z,6.50
2018-02-27T00:40:59.997Z,6.60
2018-02-27T00:41:59.959Z,7.00
2018-02-27T00:42:59.933Z,6.60
2018-02-27T00:43:59.892Z,6.50
2018-02-27T00:44:59.865Z,6.70
2018-02-27T00:45:59.829Z,7.00
2018-02-27T00:46:59.803Z,6.90
2018-02-27T00:47:59.769Z,6.60
2018-02-27T00:48:59.743Z,6.40
2018-02-27T00:49:59.709Z,6.60
2018-02-27T00:50:59.687Z,6.60
2018-02-27T00:51:59.643Z,6.70
2018-02-27T00:52:59.615Z,6.90
2018-02-27T00:53:59.577Z,6.70
2018-02-27T00:54:59.559Z,6.80
2018-02-27T00:55:59.519Z,6.30
2018-02-27T00:56:59.491Z,6.70
2018-02-27T00:57:59.451Z,7.00
2018-02-27T00:58:59.420Z,6.90
2018-02-27T00:59:59.403Z,7.20
2018-02-27T01:00:59.365Z,6.90
2018-02-27T01:01:59.328Z,6.70
2018-02-27T01:02:59.291Z,6.70
2018-02-27T01:03:59.266Z,6.80
2018-02-27T01:04:59.230Z,6.90
2018-02-27T01:05:59.202Z,7.00
2018-02-27T01:06:59.171Z,6.70
2018-02-27T01:07:59.136Z,7.10
2018-02-27T01:08:59.102Z,6.90
2018-02-27T01:09:59.076Z,6.60
2018-02-27T01:10:59.050Z,6.90
2018-02-27T01:11:59.016Z,6.50
2018-02-27T01:12:58.982Z,7.00
2018-02-27T01:13:58.954Z,7.00
2018-02-27T01:14:58.924Z,6.80
2018-02-27T01:15:58.888Z,6.70
2018-02-27T01:16:58.850Z,7.20
2018-02-27T01:17:58.827Z,6.90
2018-02-27T01:18:58.790Z,6.80
2018-02-27T01:19:58.765Z,7.10
2018-02-27T01:20:58.730Z,6.90
2018-02-27T01:21:58.700Z,6.90
2018-02-27T01:22:58.664Z,6.70
2018-02-27T01:23:58.639Z,6.80
2018-02-27T01:24:58.598Z,7.10
2018-02-27T01:25:58.581Z,6.70
2018-02-27T01:26:58.538Z,6.60
2018-02-27T01:27:58.519Z,7.00
2018-02-27T01:28:58.478Z,7.30
2018-02-27T01:29:58.442Z,6.50
2018-02-27T01:30:58.414Z,6.90
2018-02-27T01:31:58.376Z,6.70
2018-02-27T01:32:58.362Z,6.90
2018-02-27T01:33:58.311Z,7.30
2018-02-27T01:34:58.296Z,7.10
2018-02-27T01:35:58.254Z,6.90
2018-02-27T01:36:58.224Z,7.00
2018-02-27T01:37:58.191Z,7.10
2018-02-27T01:38:58.161Z,7.20
2018-02-27T01:39:58.128Z,6.90
2018-02-27T01:40:58.100Z,6.80
2018-02-27T01:41:58.062Z,7.10
2018-02-27T01:42:58.033Z,7.40
2018-02-27T01:43:58.001Z,7.00
2018-02-27T01:44:57.965Z,7.30
2018-02-27T01:45:57.943Z,7.20
2018-02-27T01:46:57.908Z,7.60
2018-02-27T01:47:57.874Z,7.50
2018-02-27T01:48:57.838Z,6.90
2018-02-27T01:49:57.813Z,7.50
2018-02-27T01:50:57.780Z,7.60
2018-02-27T01:51:57.755Z,7.60
2018-02-27T01:52:57.722Z,7.40
2018-02-27T01:53:57.684Z,7.70
2018-02-27T01:54:57.665Z,7.30
2018-02-27T01:55:57.623Z,7.30
2018-02-27T01:56:57.595Z,6.90
2018-02-27T01:57:57.557Z,7.40
2018-02-27T01:58:57.531Z,7.10
2018-02-27T01:59:57.496Z,7.10
2018-02-27T02:00:57.466Z,7.10
2018-02-27T02:01:57.437Z,7.30
2018-02-27T02:02:57.402Z,7.30
2018-02-27T02:03:57.366Z,7.60
2018-02-27T02:04:57.338Z,7.30
2018-02-27T02:05:57.305Z,7.30
2018-02-27T02:06:57.283Z,7.60
2018-02-27T02:07:57.247Z,7.40
2018-02-27T02:08:57.213Z,7.50
2018-02-27T02:09:57.182Z,7.80
2018-02-27T02:10:57.159Z,7.10
2018-02-27T02:11:57.116Z,7.10
2018-02-27T02:12:57.085Z,7.10
2018-02-27T02:13:57.055Z,6.80
2018-02-27T02:14:57.016Z,7.30
2018-02-27T02:15:56.990Z,6.90
2018-02-27T02:16:56.964Z,7.90
2018-02-27T02:17:56.932Z,7.80
2018-02-27T02:18:56.893Z,7.10
2018-02-27T02:19:56.865Z,7.40
2018-02-27T02:20:56.838Z,7.50
2018-02-27T02:21:56.800Z,7.00
2018-02-27T02:22:56.765Z,7.40
2018-02-27T02:23:56.736Z,7.20
2018-02-27T02:24:56.706Z,7.70
2018-02-27T02:25:56.676Z,7.90
2018-02-27T02:26:56.638Z,7.20
2018-02-27T02:27:56.619Z,7.40
2018-02-27T02:28:56.578Z,7.40
2018-02-27T02:29:56.546Z,7.50
2018-02-27T02:30:56.517Z,7.60
2018-02-27T02:31:56.481Z,7.00
2018-02-27T02:32:56.451Z,7.50
2018-02-27T02:33:56.429Z,7.10
2018-02-27T02:34:56.393Z,7.60
2018-02-27T02:35:56.352Z,7.40
2018-02-27T02:36:56.332Z,7.20
2018-02-27T02:37:56.294Z,7.20
2018-02-27T02:38:56.280Z,7.10
2018-02-27T02:39:56.237Z,7.50
2018-02-27T02:40:56.200Z,7.50
2018-02-27T02:41:56.164Z,7.50
2018-02-27T02:42:56.130Z,7.10
2018-02-27T02:43:56.108Z,7.30
2018-02-27T02:44:56.078Z,7.20
2018-02-27T02:45:56.043Z,7.70
2018-02-27T02:46:56.009Z,7.30
2018-02-27T02:47:55.978Z,7.30
2018-02-27T02:48:55.951Z,7.60
2018-02-27T02:49:55.922Z,7.30
2018-02-27T02:50:55.879Z,7.70
2018-02-27T02:51:55.850Z,7.40
2018-02-27T02:52:55.813Z,7.00
2018-02-27T02:53:55.782Z,7.30
2018-02-27T02:54:55.756Z,8.00
2018-02-27T02:55:55.727Z,7.70
2018-02-27T02:56:55.694Z,7.40
2018-02-27T02:57:55.662Z,7.50
2018-02-27T02:58:55.629Z,7.10
2018-02-27T02:59:55.597Z,7.90
2018-02-27T03:00:55.565Z,7.30
2018-02-27T03:01:55.533Z,7.90
2018-02-27T03:02:55.500Z,7.80
2018-02-27T03:03:55.470Z,8.00
2018-02-27T03:04:55.434Z,7.30
2018-02-27T03:05:55.413Z,7.40
2018-02-27T03:06:55.376Z,7.70
2018-02-27T03:07:55.352Z,7.50
2018-02-27T03:08:55.315Z,7.90
2018-02-27T03:09:55.281Z,7.90
2018-02-27T03:10:55.250Z,7.30
2018-02-27T03:11:55.215Z,7.70
2018-02-27T03:12:55.190Z,7.80
2018-02-27T03:13:55.150Z,7.60
2018-02-27T03:14:55.121Z,7.90
2018-02-27T03:15:55.088Z,7.30
2018-02-27T03:16:55.063Z,7.30
2018-02-27T03:17:55.026Z,8.30
2018-02-27T03:18:54.992Z,8.20
2018-02-27T03:19:54.958Z,7.90
2018-02-27T03:20:54.931Z,7.80
2018-02-27T03:21:54.895Z,8.30
2018-02-27T03:22:54.881Z,8.10
2018-02-27T03:23:54.833Z,8.10
2018-02-27T03:24:54.801Z,7.90
2018-02-27T03:25:54.780Z,8.00
2018-02-27T03:26:54.746Z,8.20
2018-02-27T03:27:54.704Z,8.10
2018-02-27T03:28:54.681Z,7.60
2018-02-27T03:29:54.646Z,8.20
2018-02-27T03:30:54.612Z,8.50
2018-02-27T03:31:54.589Z,8.10
2018-02-27T03:32:54.553Z,8.20
2018-02-27T03:33:54.529Z,7.90
2018-02-27T03:34:54.486Z,7.30
2018-02-27T03:35:54.454Z,8.10
2018-02-27T03:36:54.422Z,7.70
2018-02-27T03:37:54.400Z,7.30
2018-02-27T03:38:54.364Z,8.00
2018-02-27T03:39:54.324Z,7.70
2018-02-27T03:40:54.300Z,7.70
2018-02-27T03:41:54.273Z,7.50
2018-02-27T03:42:54.246Z,7.90
2018-02-27T03:43:54.207Z,8.50
2018-02-27T03:44:54.174Z,7.60
2018-02-27T03:45:54.143Z,8.30
2018-02-27T03:46:54.120Z,8.10
2018-02-27T03:47:54.076Z,7.90
2018-02-27T03:48:54.041Z,8.30
2018-02-27T03:49:54.068Z,8.30
2018-02-27T03:50:53.988Z,8.20
2018-02-27T03:51:53.955Z,8.00
2018-02-27T03:52:53.918Z,8.20
2018-02-27T03:53:53.884Z,8.40
2018-02-27T03:54:53.853Z,8.20
2018-02-27T03:55:53.831Z,7.90
2018-02-27T03:56:53.797Z,7.60
2018-02-27T03:57:53.794Z,8.30
2018-02-27T03:58:53.726Z,7.80
2018-02-27T03:59:53.702Z,8.70
2018-02-27T04:00:53.669Z,8.50
2018-02-27T04:01:53.631Z,8.00
2018-02-27T04:02:53.609Z,8.60
2018-02-27T04:03:53.568Z,8.10
2018-02-27T04:04:53.538Z,8.30
2018-02-27T04:05:53.503Z,8.20
2018-02-27T04:06:53.481Z,8.20
2018-02-27T04:07:53.446Z,8.00
2018-02-27T04:08:53.417Z,8.40
2018-02-27T04:09:53.386Z,8.00
2018-02-27T04:10:53.348Z,8.60
2018-02-27T04:11:53.320Z,7.90
2018-02-27T04:12:53.285Z,8.10
2018-02-27T04:13:53.252Z,8.10
2018-02-27T04:14:53.228Z,8.40
2018-02-27T04:15:53.191Z,8.20
2018-02-27T04:16:53.152Z,7.80
2018-02-27T04:17:53.130Z,8.20
2018-02-27T04:18:53.088Z,8.00
2018-02-27T04:19:53.071Z,8.30
2018-02-27T04:20:53.030Z,8.00
2018-02-27T04:21:52.997Z,7.80
2018-02-27T04:22:52.961Z,8.40
2018-02-27T04:23:52.938Z,8.60
2018-02-27T04:24:52.905Z,7.80
2018-02-27T04:25:52.876Z,8.10
2018-02-27T04:26:52.833Z,8.00
2018-02-27T04:27:52.806Z,7.90
2018-02-27T04:28:52.774Z,8.10
2018-02-27T04:29:52.749Z,8.30
2018-02-27T04:30:52.710Z,8.20
2018-02-27T04:31:52.686Z,8.00
2018-02-27T04:32:52.648Z,8.20
2018-02-27T04:33:52.616Z,8.60
2018-02-27T04:34:52.584Z,8.20
2018-02-27T04:35:52.608Z,8.30
2018-02-27T04:36:52.518Z,8.40
2018-02-27T04:37:52.493Z,8.50
2018-02-27T04:38:52.462Z,7.90
2018-02-27T04:39:52.429Z,8.30
2018-02-27T04:40:52.390Z,8.70
2018-02-27T04:41:52.371Z,8.40
2018-02-27T04:42:52.333Z,8.70
2018-02-27T04:43:52.299Z,8.40
2018-02-27T04:44:52.264Z,8.50
2018-02-27T04:45:52.235Z,8.70
2018-02-27T04:46:52.203Z,8.80
2018-02-27T04:47:52.174Z,8.60
2018-02-27T04:48:52.136Z,8.40
2018-02-27T04:49:52.111Z,9.10
2018-02-27T04:50:52.083Z,8.50
2018-02-27T04:51:52.047Z,9.00
2018-02-27T04:52:52.011Z,8.50
2018-02-27T04:53:51.988Z,8.50
2018-02-27T04:54:51.951Z,8.80
2018-02-27T04:55:51.926Z,8.70
2018-02-27T04:56:51.887Z,8.80
2018-02-27T04:57:51.854Z,8.60
2018-02-27T04:58:51.818Z,8.10
2018-02-27T04:59:51.793Z,8.40
2018-02-27T05:00:51.764Z,8.50
2018-02-27T05:01:51.726Z,8.20
2018-02-27T05:02:51.698Z,7.80
2018-02-27T05:03:51.725Z,8.50
2018-02-27T05:04:51.631Z,8.40
2018-02-27T05:05:51.601Z,8.20
2018-02-27T05:06:51.573Z,7.90
2018-02-27T05:07:51.536Z,8.30
2018-02-27T05:08:51.504Z,7.90
2018-02-27T05:09:51.477Z,8.40
2018-02-27T05:10:51.445Z,8.60
2018-02-27T05:11:51.408Z,8.00
2018-02-27T05:12:51.387Z,7.80
2018-02-27T05:13:51.345Z,8.00
2018-02-27T05:14:51.321Z,8.20
2018-02-27T05:15:51.283Z,8.50
2018-02-27T05:16:51.256Z,8.60
2018-02-27T05:17:51.226Z,7.90
2018-02-27T05:18:51.204Z,8.10
2018-02-27T05:19:51.157Z,7.70
2018-02-27T05:20:51.129Z,8.10
2018-02-27T05:21:51.094Z,8.10
2018-02-27T05:22:51.070Z,8.10
2018-02-27T05:23:51.032Z,7.70
2018-02-27T05:24:51.005Z,8.00
2018-02-27T05:25:50.970Z,7.50
2018-02-27T05:26:50.937Z,7.40
2018-02-27T05:27:50.908Z,7.70
2018-02-27T05:28:50.868Z,8.10
2018-02-27T05:29:50.847Z,7.70
2018-02-27T05:30:50.815Z,7.40
2018-02-27T05:31:50.782Z,7.90
2018-02-27T05:32:50.749Z,7.40
2018-02-27T05:33:50.716Z,7.90
2018-02-27T05:34:50.705Z,8.10
2018-02-27T05:35:50.648Z,7.90
2018-02-27T05:36:50.621Z,7.80
2018-02-27T05:37:50.590Z,8.10
2018-02-27T05:38:50.562Z,8.20
2018-02-27T05:39:50.521Z,7.80
2018-02-27T05:40:50.490Z,8.00
2018-02-27T05:41:50.478Z,7.70
2018-02-27T05:42:50.433Z,7.60
2018-02-27T05:43:50.399Z,7.80
2018-02-27T05:44:50.364Z,7.50
2018-02-27T05:45:50.343Z,7.80
2018-02-27T05:46:50.307Z,7.80
2018-02-27T05:47:50.271Z,7.70
2018-02-27T05:48:50.236Z,7.90
2018-02-27T05:49:50.212Z,8.40
2018-02-27T05:50:50.176Z,7.70
2018-02-27T05:51:50.146Z,7.10
2018-02-27T05:52:50.117Z,7.40
2018-02-27T05:53:50.080Z,8.00
2018-02-27T05:54:50.048Z,7.50
2018-02-27T05:55:50.021Z,7.50
2018-02-27T05:56:50.000Z,7.70
2018-02-27T05:57:49.955Z,7.90
2018-02-27T05:58:49.924Z,7.80
2018-02-27T05:59:49.939Z,7.80
2018-02-27T06:00:49.864Z,7.30
2018-02-27T06:01:49.826Z,7.50
2018-02-27T06:02:50.479Z,7.50
2018-02-27T06:03:49.798Z,7.30
2018-02-27T06:04:49.732Z,7.20
2018-02-27T06:05:49.697Z,7.70
2018-02-27T06:06:49.705Z,7.00
2018-02-27T06:07:49.687Z,7.20
2018-02-27T06:08:49.641Z,7.30
2018-02-27T06:09:50.318Z,7.40
2018-02-27T06:10:49.563Z,7.70
2018-02-27T06:11:49.505Z,7.30
2018-02-27T06:12:49.493Z,6.90
2018-02-27T06:13:49.450Z,7.60
2018-02-27T06:14:49.420Z,7.40
2018-02-27T06:15:49.435Z,6.90
2018-02-27T06:16:49.409Z,6.70
2018-02-27T06:17:49.313Z,7.50
2018-02-27T06:18:49.300Z,7.60
2018-02-27T06:19:49.252Z,7.20
2018-02-27T06:20:49.225Z,7.10
2018-02-27T06:21:49.198Z,7.40
2018-02-27T06:22:49.208Z,7.30
2018-02-27T06:23:49.131Z,7.30
2018-02-27T06:24:49.091Z,6.80
2018-02-27T06:25:49.067Z,7.70
2018-02-27T06:26:49.032Z,7.40
2018-02-27T06:27:49.008Z,7.20
2018-02-27T06:28:48.965Z,7.30
2018-02-27T06:29:48.939Z,7.40
2018-02-27T06:30:48.906Z,7.40
2018-02-27T06:31:48.875Z,7.60
2018-02-27T06:32:48.838Z,7.40
2018-02-27T06:33:48.812Z,7.30
2018-02-27T06:34:48.780Z,7.60
2018-02-27T06:35:48.752Z,7.70
2018-02-27T06:36:48.715Z,7.70
2018-02-27T06:37:48.685Z,7.50
2018-02-27T06:38:48.647Z,7.70
2018-02-27T06:39:48.625Z,7.50
2018-02-27T06:40:48.592Z,7.50
2018-02-27T06:41:48.551Z,7.70
2018-02-27T06:42:48.530Z,7.50
2018-02-27T06:43:48.495Z,7.80
2018-02-27T06:44:48.463Z,7.60
2018-02-27T06:45:48.426Z,7.70
2018-02-27T06:46:48.398Z,7.70
2018-02-27T06:47:48.368Z,7.60
2018-02-27T06:48:48.338Z,7.50
2018-02-27T06:49:48.331Z,7.80
2018-02-27T06:50:48.272Z,7.40
2018-02-27T06:51:48.240Z,7.10
2018-02-27T06:52:48.215Z,7.80
2018-02-27T06:53:48.182Z,7.80
2018-02-27T06:54:48.149Z,7.80
2018-02-27T06:55:48.114Z,7.90
2018-02-27T06:56:48.082Z,7.60
2018-02-27T06:57:48.093Z,7.90
2018-02-27T06:58:48.018Z,7.20
2018-02-27T06:59:47.989Z,7.20
2018-02-27T07:00:47.955Z,7.70
2018-02-27T07:01:47.932Z,7.70
2018-02-27T07:02:47.889Z,7.70
2018-02-27T07:03:47.861Z,7.10
2018-02-27T07:04:47.837Z,7.60
2018-02-27T07:05:47.796Z,7.20
2018-02-27T07:06:47.768Z,7.90
2018-02-27T07:07:47.733Z,7.80
2018-02-27T07:08:47.767Z,7.90
2018-02-27T07:09:47.664Z,8.10
2018-02-27T07:10:47.638Z,7.50
2018-02-27T07:11:47.606Z,7.70
2018-02-27T07:12:47.576Z,7.90
2018-02-27T07:13:47.539Z,7.80
2018-02-27T07:14:47.512Z,8.00
2018-02-27T07:15:47.484Z,7.80
2018-02-27T07:16:47.449Z,8.40
2018-02-27T07:17:47.453Z,8.00
2018-02-27T07:18:47.387Z,8.20
2018-02-27T07:19:47.353Z,7.80
2018-02-27T07:20:47.326Z,8.20
2018-02-27T07:21:47.291Z,8.50
2018-02-27T07:22:47.264Z,8.10
2018-02-27T07:23:47.221Z,8.80
2018-02-27T07:24:47.198Z,8.40
2018-02-27T07:25:47.157Z,8.40
2018-02-27T07:26:47.135Z,7.90
2018-02-27T07:27:47.100Z,8.00
2018-02-27T07:28:47.074Z,8.30
2018-02-27T07:29:47.044Z,8.20
2018-02-27T07:30:47.005Z,8.40
2018-02-27T07:31:46.967Z,8.30
2018-02-27T07:32:46.936Z,8.00
2018-02-27T07:33:46.914Z,8.30
2018-02-27T07:34:46.881Z,8.20
2018-02-27T07:35:46.841Z,8.20
2018-02-27T07:36:46.811Z,8.20
2018-02-27T07:37:46.808Z,8.40
2018-02-27T07:38:46.749Z,8.80
2018-02-27T07:39:46.758Z,8.10
2018-02-27T07:40:46.683Z,8.20
2018-02-27T07:41:46.658Z,8.40
2018-02-27T07:42:46.622Z,9.40
2018-02-27T07:43:46.592Z,9.00
2018-02-27T07:44:46.565Z,8.70
2018-02-27T07:45:46.523Z,8.60
2018-02-27T07:46:46.496Z,8.60
2018-02-27T07:47:46.466Z,9.20
2018-02-27T07:48:46.435Z,9.30
2018-02-27T07:49:46.402Z,8.70
2018-02-27T07:50:46.376Z,8.80
2018-02-27T07:51:46.345Z,9.10
2018-02-27T07:52:46.305Z,8.70
2018-02-27T07:53:46.275Z,8.60
2018-02-27T07:54:46.272Z,8.80
2018-02-27T07:55:46.232Z,8.60
2018-02-27T07:56:46.182Z,8.80
2018-02-27T07:57:46.151Z,8.70
2018-02-27T07:58:46.121Z,8.70
2018-02-27T07:59:46.121Z,8.20
2018-02-27T08:00:46.144Z,8.70
2018-02-27T08:01:46.034Z,8.10
2018-02-27T08:02:45.989Z,8.50
2018-02-27T08:03:45.957Z,8.20
2018-02-27T08:04:45.931Z,8.00
2018-02-27T08:05:45.893Z,8.50
2018-02-27T08:06:45.862Z,8.70
2018-02-27T08:07:45.834Z,8.20
2018-02-27T08:08:45.804Z,8.90
2018-02-27T08:09:45.767Z,8.50
2018-02-27T08:10:45.742Z,8.00
2018-02-27T08:11:45.743Z,8.40
2018-02-27T08:12:45.674Z,8.30
2018-02-27T08:13:45.657Z,7.90
2018-02-27T08:14:45.604Z,8.20
2018-02-27T08:15:45.582Z,8.10
2018-02-27T08:16:45.545Z,8.00
2018-02-27T08:17:45.518Z,8.10
2018-02-27T08:18:45.480Z,8.20
2018-02-27T08:19:45.453Z,7.10
2018-02-27T08:20:45.415Z,7.60
2018-02-27T08:21:45.390Z,7.30
2018-02-27T08:22:45.354Z,7.00
2018-02-27T08:23:45.321Z,7.70
2018-02-27T08:24:45.291Z,7.10
2018-02-27T08:25:45.265Z,7.20
2018-02-27T08:26:45.235Z,6.80
2018-02-27T08:27:45.198Z,6.90
2018-02-27T08:28:45.195Z,7.20
2018-02-27T08:29:45.136Z,6.90
2018-02-27T08:30:45.102Z,6.50
2018-02-27T08:31:45.077Z,6.20
2018-02-27T08:32:45.042Z,6.30
2018-02-27T08:33:45.002Z,6.40
2018-02-27T08:34:44.976Z,6.90
2018-02-27T08:35:44.948Z,6.20
2018-02-27T08:36:44.918Z,7.30
2018-02-27T08:37:44.875Z,6.70
2018-02-27T08:38:44.848Z,6.60
2018-02-27T08:39:44.820Z,6.00
2018-02-27T08:40:44.783Z,6.40
2018-02-27T08:41:44.752Z,6.50
2018-02-27T08:42:44.723Z,6.30
2018-02-27T08:43:44.699Z,6.50
2018-02-27T08:44:44.658Z,5.90
2018-02-27T08:45:44.645Z,6.60
2018-02-27T08:46:44.599Z,6.60
2018-02-27T08:47:44.565Z,6.10
2018-02-27T08:48:44.536Z,6.70
2018-02-27T08:49:44.495Z,6.80
2018-02-27T08:50:44.476Z,7.20
2018-02-27T08:51:44.499Z,6.90
2018-02-27T08:52:44.465Z,6.80
2018-02-27T08:53:44.376Z,6.60
2018-02-27T08:54:44.351Z,6.60
2018-02-27T08:55:44.315Z,7.70
2018-02-27T08:56:44.288Z,6.40
2018-02-27T08:59:15.884Z,6.90
2018-02-27T09:00:15.816Z,7.10
2018-02-27T09:02:08.766Z,6.40
2018-02-27T09:03:08.697Z,6.40
2018-02-27T09:05:01.593Z,6.00
2018-02-27T09:06:01.550Z,6.00
2018-02-27T09:07:54.466Z,6.30
2018-02-27T09:08:54.399Z,5.80
2018-02-27T09:09:54.367Z,6.10
2018-02-27T09:10:54.343Z,7.00
2018-02-27T09:11:54.314Z,6.20
2018-02-27T09:12:54.273Z,6.80
2018-02-27T09:13:54.248Z,6.10
2018-02-27T09:14:54.216Z,6.10
2018-02-27T09:15:54.191Z,5.80
2018-02-27T09:16:54.151Z,5.70
2018-02-27T09:17:54.129Z,5.80
2018-02-27T09:18:54.081Z,5.90
2018-02-27T09:19:54.059Z,5.40
2018-02-27T09:20:54.036Z,5.20
2018-02-27T09:21:53.990Z,5.70
2018-02-27T09:22:53.962Z,5.40
2018-02-27T09:23:53.937Z,5.00
2018-02-27T09:24:53.904Z,5.20
2018-02-27T09:25:53.869Z,5.20
2018-02-27T09:26:53.842Z,5.20
2018-02-27T09:27:53.814Z,4.90
2018-02-27T09:28:53.780Z,4.50
2018-02-27T09:29:53.745Z,4.60
2018-02-27T09:30:53.715Z,5.40
2018-02-27T09:31:53.691Z,4.90
2018-02-27T09:32:53.653Z,5.20
2018-02-27T09:33:53.616Z,5.20
2018-02-27T09:34:53.585Z,5.40
2018-02-27T09:35:53.561Z,5.60
2018-02-27T09:36:53.521Z,4.90
2018-02-27T09:37:53.496Z,5.00
2018-02-27T09:38:53.458Z,4.50
2018-02-27T09:39:53.434Z,5.00
2018-02-27T09:40:53.398Z,4.70
2018-02-27T09:41:53.377Z,4.30
2018-02-27T09:42:53.344Z,4.80
2018-02-27T09:43:53.309Z,4.90
2018-02-27T09:44:53.282Z,5.00
2018-02-27T09:45:53.276Z,4.50
2018-02-27T09:46:53.211Z,4.60
2018-02-27T09:47:53.193Z,4.90
2018-02-27T09:48:53.155Z,4.60
2018-02-27T09:49:53.122Z,4.80
2018-02-27T09:50:53.093Z,4.50
2018-02-27T09:51:53.054Z,4.60
2018-02-27T09:52:53.027Z,4.70
2018-02-27T09:53:52.994Z,4.80
2018-02-27T09:54:52.972Z,4.60
2018-02-27T09:55:52.935Z,4.40
2018-02-27T09:56:52.905Z,4.50
2018-02-27T09:57:52.864Z,4.80
2018-02-27T09:58:52.838Z,4.60
2018-02-27T09:59:52.806Z,4.60
2018-02-27T10:00:52.778Z,4.40
2018-02-27T10:01:52.744Z,4.70
2018-02-27T10:02:52.720Z,4.50
2018-02-27T10:03:52.680Z,4.60
2018-02-27T10:04:52.652Z,4.50
2018-02-27T10:05:52.623Z,4.60
2018-02-27T10:06:52.594Z,4.60
2018-02-27T10:07:52.562Z,4.80
2018-02-27T10:08:52.527Z,5.00
2018-02-27T10:09:52.499Z,4.50
2018-02-27T10:10:52.473Z,4.30
2018-02-27T10:11:52.436Z,4.50
2018-02-27T10:12:52.407Z,4.30
2018-02-27T10:13:52.378Z,4.40
2018-02-27T10:14:52.353Z,4.20
2018-02-27T10:15:52.335Z,4.20
2018-02-27T10:16:52.315Z,4.50
2018-02-27T10:17:52.249Z,4.40
2018-02-27T10:18:52.216Z,4.50
2018-02-27T10:19:52.200Z,4.70
2018-02-27T10:20:52.173Z,4.50
2018-02-27T10:21:52.318Z,4.70
2018-02-27T10:22:52.203Z,4.60
2018-02-27T10:23:52.068Z,4.40
2018-02-27T10:24:52.038Z,4.90
2018-02-27T10:25:51.998Z,4.50
2018-02-27T10:26:51.971Z,4.80
2018-02-27T10:27:51.938Z,4.50
2018-02-27T10:28:51.923Z,4.60
2018-02-27T10:29:51.876Z,4.70
2018-02-27T10:30:51.846Z,4.70
2018-02-27T10:31:51.824Z,4.40
2018-02-27T10:32:51.786Z,4.40
2018-02-27T10:33:51.763Z,4.30
2018-02-27T10:34:51.724Z,4.70
2018-02-27T10:35:51.747Z,4.20
2018-02-27T10:36:51.718Z,4.60
2018-02-27T10:37:51.638Z,4.70
2018-02-27T10:38:51.599Z,4.60
2018-02-27T10:39:51.572Z,4.50
2018-02-27T10:40:51.535Z,4.60
2018-02-27T10:41:51.517Z,4.60
2018-02-27T10:42:51.480Z,4.50
2018-02-27T10:43:51.452Z,4.30
2018-02-27T10:44:51.412Z,4.80
2018-02-27T10:45:51.395Z,4.60
2018-02-27T10:46:51.359Z,4.70
2018-02-27T10:47:51.326Z,4.60
2018-02-27T10:48:51.296Z,4.90
2018-02-27T10:49:51.269Z,4.20
2018-02-27T10:50:51.237Z,4.30
2018-02-27T10:51:51.200Z,5.00
2018-02-27T10:52:51.172Z,4.40
2018-02-27T10:53:51.155Z,4.40
2018-02-27T10:54:51.118Z,4.50
2018-02-27T10:55:51.088Z,4.60
2018-02-27T10:56:51.047Z,4.70
2018-02-27T10:57:51.029Z,4.70
2018-02-27T10:58:51.002Z,4.60
2018-02-27T10:59:50.954Z,4.30
2018-02-27T11:00:50.930Z,4.30
2018-02-27T11:01:50.900Z,5.00
2018-02-27T11:02:50.867Z,4.90
2018-02-27T11:03:50.844Z,4.80
2018-02-27T11:04:50.818Z,4.90
2018-02-27T11:05:50.777Z,4.80
2018-02-27T11:06:50.756Z,4.80
2018-02-27T11:07:50.722Z,4.80
2018-02-27T11:08:50.690Z,4.30
2018-02-27T11:09:50.654Z,4.20
2018-02-27T11:10:50.620Z,4.40
2018-02-27T11:11:50.599Z,4.50
2018-02-27T11:12:50.561Z,4.60
2018-02-27T11:13:50.535Z,5.00
2018-02-27T11:14:50.507Z,4.90
2018-02-27T11:15:50.469Z,5.20
2018-02-27T11:16:50.437Z,4.30
2018-02-27T11:17:50.416Z,4.60
2018-02-27T11:18:50.381Z,4.30
2018-02-27T11:19:50.354Z,4.90
2018-02-27T11:20:50.315Z,4.70
2018-02-27T11:21:50.296Z,4.80
2018-02-27T11:22:50.283Z,4.60
2018-02-27T11:23:50.228Z,4.90
2018-02-27T11:24:50.199Z,4.80
2018-02-27T11:25:50.172Z,5.50
2018-02-27T11:26:50.138Z,5.40
2018-02-27T11:27:50.111Z,5.10
2018-02-27T11:28:50.080Z,5.40
2018-02-27T11:29:50.046Z,5.20
2018-02-27T11:30:50.027Z,5.40
2018-02-27T11:31:49.988Z,5.30
2018-02-27T11:32:49.960Z,5.20
2018-02-27T11:33:49.944Z,4.80
2018-02-27T11:34:49.900Z,4.40
2018-02-27T11:35:49.867Z,4.10
2018-02-27T11:36:49.838Z,3.90
2018-02-27T11:37:49.802Z,4.10
2018-02-27T11:38:49.791Z,4.40
2018-02-27T11:39:49.745Z,4.20
2018-02-27T11:40:49.743Z,3.80
2018-02-27T11:41:49.684Z,3.80
2018-02-27T11:42:49.665Z,4.10
2018-02-27T11:43:49.627Z,4.40
2018-02-27T11:44:49.588Z,4.40
2018-02-27T11:45:49.567Z,4.50
2018-02-27T11:46:49.536Z,4.50
2018-02-27T11:47:49.507Z,3.90
2018-02-27T11:48:49.470Z,3.90
2018-02-27T11:49:49.670Z,3.50
2018-02-27T11:50:49.415Z,3.60
2018-02-27T11:51:49.388Z,3.60
2018-02-27T11:52:49.354Z,3.70
2018-02-27T11:53:49.329Z,3.80
2018-02-27T11:54:49.295Z,3.80
2018-02-27T11:55:49.273Z,3.70
2018-02-27T11:56:49.234Z,3.60
2018-02-27T11:57:49.208Z,3.90
2018-02-27T11:58:49.170Z,4.30
2018-02-27T11:59:49.146Z,3.70
2018-02-27T12:00:49.106Z,3.60
2018-02-27T12:01:49.087Z,3.70
2018-02-27T12:02:49.057Z,3.60
2018-02-27T12:03:49.021Z,3.70
2018-02-27T12:04:48.997Z,4.00
2018-02-27T12:05:48.966Z,3.70
2018-02-27T12:06:48.930Z,3.60
2018-02-27T12:07:48.902Z,3.60
2018-02-27T12:08:48.866Z,3.70
2018-02-27T12:09:48.841Z,3.70
2018-02-27T12:10:48.812Z,3.80
2018-02-27T12:11:48.774Z,3.60
2018-02-27T12:12:48.746Z,4.10
2018-02-27T12:13:48.724Z,3.80
2018-02-27T12:14:48.691Z,4.00
2018-02-27T12:15:48.662Z,3.50
2018-02-27T12:16:48.634Z,3.70
2018-02-27T12:17:48.597Z,3.60
2018-02-27T12:18:48.567Z,3.60
2018-02-27T12:19:48.546Z,4.00
2018-02-27T12:20:48.504Z,4.00
2018-02-27T12:21:48.476Z,4.10
2018-02-27T12:22:48.448Z,3.90
2018-02-27T12:23:48.427Z,3.60
2018-02-27T12:24:48.393Z,3.20
2018-02-27T12:25:48.368Z,3.40
2018-02-27T12:26:48.328Z,3.60
2018-02-27T12:27:48.309Z,3.30
2018-02-27T12:28:48.270Z,3.70
2018-02-27T12:29:49.020Z,4.00
2018-02-27T12:30:48.210Z,3.80
2018-02-27T12:31:48.189Z,3.80
2018-02-27T12:32:48.157Z,3.50
2018-02-27T12:33:48.132Z,3.90
2018-02-27T12:34:48.089Z,4.10
2018-02-27T12:35:48.065Z,3.30
2018-02-27T12:36:48.030Z,4.10
2018-02-27T12:37:48.002Z,3.90
2018-02-27T12:38:48.019Z,3.60
2018-02-27T12:39:47.943Z,4.20
2018-02-27T12:40:47.919Z,3.90
2018-02-27T12:41:47.884Z,3.80
2018-02-27T12:42:47.857Z,4.20
2018-02-27T12:43:47.828Z,4.50
2018-02-27T12:44:47.802Z,4.10
2018-02-27T12:45:47.765Z,4.50
2018-02-27T12:46:47.741Z,5.00
2018-02-27T12:47:47.733Z,4.20
2018-02-27T12:48:47.685Z,4.60
2018-02-27T12:49:47.665Z,4.30
2018-02-27T12:50:47.624Z,4.00
2018-02-27T12:51:47.593Z,3.80
2018-02-27T12:52:47.566Z,4.20
2018-02-27T12:53:47.535Z,3.90
2018-02-27T12:54:47.504Z,3.70
2018-02-27T12:55:47.468Z,3.80
2018-02-27T12:56:47.444Z,3.70
2018-02-27T12:57:47.419Z,3.80
2018-02-27T12:58:47.392Z,3.90
2018-02-27T12:59:47.361Z,3.70
2018-02-27T13:00:47.373Z,4.10
2018-02-27T13:01:47.320Z,4.20
2018-02-27T13:02:47.276Z,4.20
2018-02-27T13:03:47.239Z,5.30
2018-02-27T13:04:47.208Z,5.00
2018-02-27T13:05:47.184Z,5.40
2018-02-27T13:06:47.191Z,5.30
2018-02-27T13:07:47.138Z,5.00
2018-02-27T13:08:47.092Z,4.80
2018-02-27T13:09:47.076Z,4.80
2018-02-27T13:10:47.037Z,4.90
2018-02-27T13:11:47.014Z,4.90
2018-02-27T13:12:46.982Z,5.20
2018-02-27T13:13:46.963Z,4.80
2018-02-27T13:14:46.925Z,4.90
2018-02-27T13:15:46.899Z,4.90
2018-02-27T13:16:46.866Z,4.90
2018-02-27T13:17:46.837Z,4.80
2018-02-27T13:18:46.809Z,4.80
2018-02-27T13:19:46.779Z,5.10
2018-02-27T13:20:46.753Z,5.10
2018-02-27T13:21:46.719Z,5.10